»·PEaware :: N218LL KTRM-KKNB

N218LL :: KTRM-KKNB

FLIGHT INFORMATION

Flight Status: Arrived
Operator: Privately registered:
United States
More flights under this callsign
Pilot: Larry S. (744)
Aircraft: BEECH AIRCRAFT A90-E90 KING AIR
(BE9L)
More flights by this aircraft type
Origin: KTRM Desert Resorts Regl
United States
Destination: KKNB Kanab Mun
United States
More flights between these airports :: More routes between these airports
Route: MECCA1 TNP V514 LYNSY V8 MMM
File this flight plan on PilotEdge
Remarks:
Altitude:
(Current/Filed)
15,000ft
Speed:
(Current/Filed)
190kts
Departed: 23-Feb-21 09:38 AM
Arrived: 23-Feb-21 11:16 AM
Distance/Time
Traveled:
270nm/1:38
Distance/Time
To Go:
Arrived

Flight Plot

Page will automatically refresh every two minutes.

Flight plan parsing failed; only flown route is shown


Map Options




Map Legend


Flown Route
Filed Route
Departure Airport
Arrival Airport
Navaid (VOR, NDB)
Fix

Horizontal Profiles

Position Reports

Time Latitude Longitude Heading Altitude Ground
Speed
23-Feb-21 08:55 33.634723 -116.162149 90 -108ft 0kts
23-Feb-21 08:56 33.634723 -116.162149 90 -108ft 0kts
23-Feb-21 08:58 33.634723 -116.162149 90 -108ft 0kts
23-Feb-21 08:59 33.634723 -116.162149 90 -108ft 0kts
23-Feb-21 09:00 33.634723 -116.162149 90 -108ft 0kts
23-Feb-21 09:01 33.634723 -116.162149 90 -108ft 0kts
23-Feb-21 09:02 33.634723 -116.162149 90 -108ft 0kts
23-Feb-21 09:03 33.634723 -116.162149 90 -108ft 0kts
23-Feb-21 09:04 33.634723 -116.162149 90 -108ft 0kts
23-Feb-21 09:05 33.634723 -116.162149 90 -108ft 0kts
23-Feb-21 09:06 33.634723 -116.162149 90 -108ft 0kts
23-Feb-21 09:07 33.634723 -116.162149 90 -108ft 0kts
23-Feb-21 09:08 33.634723 -116.162149 90 -108ft 0kts
23-Feb-21 09:09 33.634723 -116.162149 90 -108ft 0kts
23-Feb-21 09:10 33.634723 -116.162149 90 -108ft 0kts
23-Feb-21 09:11 33.634723 -116.162149 90 -108ft 0kts
23-Feb-21 09:11 33.634723 -116.162149 90 -108ft 0kts
23-Feb-21 09:13 33.634723 -116.162149 90 -108ft 0kts
23-Feb-21 09:14 33.634723 -116.162149 90 -108ft 0kts
23-Feb-21 09:15 33.634723 -116.162149 90 -108ft 0kts
23-Feb-21 09:16 33.634723 -116.162149 90 -108ft 0kts
23-Feb-21 09:16 33.634723 -116.162149 90 -108ft 0kts
23-Feb-21 09:17 33.634723 -116.162149 90 -108ft 0kts
23-Feb-21 09:18 33.634723 -116.162149 90 -108ft 0kts
23-Feb-21 09:20 33.634723 -116.162149 90 -108ft 0kts
23-Feb-21 09:20 33.634723 -116.162149 90 -108ft 0kts
23-Feb-21 09:21 33.634723 -116.162149 90 -108ft 0kts
23-Feb-21 09:22 33.634723 -116.162149 90 -108ft 0kts
23-Feb-21 09:23 33.634723 -116.162149 90 -108ft 0kts
23-Feb-21 09:24 33.634723 -116.162149 90 -108ft 0kts
23-Feb-21 09:25 33.634382 -116.162046 176 -108ft 3kts
23-Feb-21 09:26 33.634126 -116.159925 89 -109ft 9kts
23-Feb-21 09:27 33.633312 -116.157721 180 -111ft 9kts
23-Feb-21 09:28 33.630007 -116.157731 180 -114ft 12kts
23-Feb-21 09:29 33.626445 -116.157731 180 -114ft 13kts
23-Feb-21 09:30 33.622512 -116.157727 180 -117ft 15kts
23-Feb-21 09:31 33.618362 -116.157733 180 -118ft 14kts
23-Feb-21 09:32 33.615867 -116.157368 91 -121ft 0kts
23-Feb-21 09:33 33.615867 -116.157368 91 -121ft 0kts
23-Feb-21 09:34 33.615867 -116.157368 91 -121ft 0kts
23-Feb-21 09:35 33.615866 -116.157259 89 -121ft 4kts
23-Feb-21 09:36 33.616145 -116.156388 356 -121ft 2kts
23-Feb-21 09:37 33.642361 -116.156387 8 474ft 137kts
23-Feb-21 09:38 33.663389 -116.121104 98 1954ft 152kts
23-Feb-21 09:39 33.630270 -116.121461 225 3325ft 151kts
23-Feb-21 09:40 33.592167 -116.134406 150 4613ft 163kts
23-Feb-21 09:41 33.552944 -116.106312 150 5796ft 166kts
23-Feb-21 09:42 33.534002 -116.065760 40 6855ft 161kts
23-Feb-21 09:43 33.573323 -116.062969 17 7832ft 159kts
23-Feb-21 09:44 33.615345 -116.045131 12 8763ft 162kts
23-Feb-21 09:45 33.658608 -116.028904 11 9636ft 164kts
23-Feb-21 09:46 33.702249 -116.012893 11 10480ft 165kts
23-Feb-21 09:47 33.744829 -115.997316 11 11210ft 168kts
23-Feb-21 09:48 33.789538 -115.980951 10 11966ft 169kts
23-Feb-21 09:49 33.833856 -115.964700 10 12872ft 160kts
23-Feb-21 09:50 33.874829 -115.949681 10 13811ft 152kts
23-Feb-21 09:51 33.914176 -115.930035 27 14566ft 159kts
23-Feb-21 09:52 33.952137 -115.899596 28 15109ft 179kts
23-Feb-21 09:53 33.997518 -115.862913 29 15064ft 208kts
23-Feb-21 09:54 34.046579 -115.823169 29 15103ft 216kts
23-Feb-21 09:55 34.096734 -115.782495 29 15138ft 218kts
23-Feb-21 09:56 34.143601 -115.734702 39 15138ft 222kts
23-Feb-21 09:57 34.188920 -115.683824 39 15138ft 223kts
23-Feb-21 09:58 34.234492 -115.632560 39 15138ft 223kts
23-Feb-21 09:59 34.280008 -115.581278 39 15138ft 224kts
23-Feb-21 10:00 34.325521 -115.530315 32 15135ft 222kts
23-Feb-21 10:01 34.376654 -115.507376 13 15141ft 195kts
23-Feb-21 10:02 34.429854 -115.484353 14 15140ft 208kts
23-Feb-21 10:03 34.484835 -115.460419 14 15139ft 212kts
23-Feb-21 10:04 34.540613 -115.436098 14 15139ft 214kts
23-Feb-21 10:05 34.594961 -115.412369 14 15116ft 215kts
23-Feb-21 10:06 34.651343 -115.387717 14 15083ft 216kts
23-Feb-21 10:07 34.707902 -115.362952 14 15056ft 216kts
23-Feb-21 10:08 34.764392 -115.338184 15 15019ft 216kts
23-Feb-21 10:09 34.820710 -115.313449 15 15016ft 214kts
23-Feb-21 10:10 34.876671 -115.288835 15 15017ft 214kts
23-Feb-21 10:11 34.932210 -115.264364 14 15016ft 211kts
23-Feb-21 10:12 34.986519 -115.240417 15 15016ft 205kts
23-Feb-21 10:13 35.039280 -115.217124 16 15015ft 198kts
23-Feb-21 10:14 35.090335 -115.194522 16 15015ft 194kts
23-Feb-21 10:15 35.140953 -115.168894 28 15020ft 198kts
23-Feb-21 10:16 35.187414 -115.132107 28 15019ft 199kts
23-Feb-21 10:17 35.234310 -115.095062 28 15020ft 201kts
23-Feb-21 10:18 35.281599 -115.057688 29 15015ft 200kts
23-Feb-21 10:19 35.327893 -115.021008 29 15015ft 197kts
23-Feb-21 10:20 35.373881 -114.984544 28 15013ft 196kts
23-Feb-21 10:21 35.419884 -114.948020 28 15012ft 196kts
23-Feb-21 10:22 35.465745 -114.911559 28 15014ft 196kts
23-Feb-21 10:23 35.511544 -114.875099 28 15014ft 196kts
23-Feb-21 10:24 35.557329 -114.838607 28 15014ft 196kts
23-Feb-21 10:25 35.603105 -114.802071 28 15015ft 196kts
23-Feb-21 10:26 35.648986 -114.765401 28 15016ft 196kts
23-Feb-21 10:27 35.694810 -114.728713 28 14999ft 197kts
23-Feb-21 10:28 35.740518 -114.692064 28 14999ft 196kts
23-Feb-21 10:29 35.786390 -114.655230 28 14999ft 196kts
23-Feb-21 10:30 35.832025 -114.618536 28 14999ft 196kts
23-Feb-21 10:31 35.880328 -114.590397 12 14999ft 192kts
23-Feb-21 10:32 35.931782 -114.572611 12 14998ft 192kts
23-Feb-21 10:33 35.983269 -114.554671 12 14998ft 192kts
23-Feb-21 10:34 36.034665 -114.536723 12 14998ft 192kts
23-Feb-21 10:35 36.086121 -114.518730 12 14998ft 192kts
23-Feb-21 10:36 36.137692 -114.500676 12 15002ft 193kts
23-Feb-21 10:37 36.189414 -114.482540 12 15002ft 193kts
23-Feb-21 10:38 36.241032 -114.464412 12 15001ft 193kts
23-Feb-21 10:39 36.292885 -114.446176 12 15001ft 193kts
23-Feb-21 10:40 36.344563 -114.427973 12 15001ft 193kts
23-Feb-21 10:41 36.395700 -114.409941 12 14839ft 190kts
23-Feb-21 10:42 36.442856 -114.384736 63 14105ft 201kts
23-Feb-21 10:43 36.449523 -114.315216 72 13527ft 198kts
23-Feb-21 10:44 36.463266 -114.248916 69 13518ft 198kts
23-Feb-21 10:45 36.477868 -114.183107 69 13527ft 190kts
23-Feb-21 10:46 36.491179 -114.123414 69 13542ft 189kts
23-Feb-21 10:47 36.505597 -114.058667 69 13553ft 199kts
23-Feb-21 10:48 36.520442 -113.991781 69 13563ft 202kts
23-Feb-21 10:49 36.535401 -113.924202 69 13564ft 203kts
23-Feb-21 10:50 36.550403 -113.856227 69 13564ft 203kts
23-Feb-21 10:51 36.565312 -113.788478 69 13563ft 204kts
23-Feb-21 10:52 36.580237 -113.720458 69 13563ft 204kts
23-Feb-21 10:53 36.595125 -113.652401 69 13563ft 204kts
23-Feb-21 10:54 36.609999 -113.584207 69 13563ft 204kts
23-Feb-21 10:55 36.624830 -113.516002 69 13563ft 204kts
23-Feb-21 10:56 36.639527 -113.448215 69 13300ft 203kts
23-Feb-21 10:57 36.651592 -113.392416 69 12915ft 202kts
23-Feb-21 10:58 36.665916 -113.325987 70 12424ft 201kts
23-Feb-21 10:59 36.680277 -113.259192 70 11938ft 199kts
23-Feb-21 11:00 36.694549 -113.192623 71 11475ft 198kts
23-Feb-21 11:01 36.708672 -113.126552 71 11034ft 196kts
23-Feb-21 11:02 36.722650 -113.060975 71 10516ft 195kts
23-Feb-21 11:03 36.736547 -112.995552 72 10005ft 195kts
23-Feb-21 11:04 36.750428 -112.930029 72 9531ft 195kts
23-Feb-21 11:05 36.763574 -112.867760 72 9495ft 172kts
23-Feb-21 11:06 36.775278 -112.812255 72 9500ft 165kts
23-Feb-21 11:07 36.787027 -112.756332 72 9500ft 168kts
23-Feb-21 11:08 36.800428 -112.700477 45 9499ft 165kts
23-Feb-21 11:09 36.832330 -112.660984 41 8818ft 161kts
23-Feb-21 11:10 36.863945 -112.621938 42 7897ft 158kts
23-Feb-21 11:11 36.895067 -112.586150 20 7498ft 151kts
23-Feb-21 11:12 36.934833 -112.566847 19 6793ft 154kts
23-Feb-21 11:13 36.971204 -112.550288 18 5780ft 116kts
23-Feb-21 11:14 37.000053 -112.536519 20 4897ft 108kts
23-Feb-21 11:15 37.011290 -112.530464 171 4836ft 8kts
23-Feb-21 11:17 37.010678 -112.529983 73 4837ft 5kts
23-Feb-21 11:18 37.010605 -112.529344 172 4838ft 0kts
23-Feb-21 11:19 37.010605 -112.529344 172 4838ft 0kts

Navigation Log

Ident Type
Flight plan parsing failed, navigation log unavailable